createdAt,value
2022-09-18T00:00:00.790Z,94.51
2022-09-18T00:01:00.792Z,94.31
2022-09-18T00:03:04.940Z,95.17
2022-09-18T00:04:04.755Z,94.51
2022-09-18T00:05:57.691Z,95.84
2022-09-18T00:06:57.686Z,96.22
2022-09-18T00:09:02.021Z,97.18
2022-09-18T00:10:01.702Z,97.47
2022-09-18T00:12:05.718Z,97.18
2022-09-18T00:13:05.740Z,97.94
2022-09-18T00:15:09.725Z,98.61
2022-09-18T00:16:09.741Z,99.18
2022-09-18T00:18:13.651Z,99.23
2022-09-18T00:19:13.649Z,99.76
2022-09-18T00:20:13.659Z,99.99
2022-09-18T00:21:13.639Z,99.99
2022-09-18T00:22:13.650Z,99.99
2022-09-18T00:23:13.642Z,99.99
2022-09-18T00:24:13.726Z,99.99
2022-09-18T00:25:13.646Z,99.99
2022-09-18T00:26:13.624Z,99.99
2022-09-18T00:27:13.617Z,99.99
2022-09-18T00:28:13.611Z,99.99
2022-09-18T00:29:13.619Z,99.99
2022-09-18T00:30:13.614Z,99.99
2022-09-18T00:31:13.668Z,99.99
2022-09-18T00:32:13.604Z,99.99
2022-09-18T00:33:13.598Z,99.99
2022-09-18T00:34:13.624Z,99.99
2022-09-18T00:35:13.602Z,99.99
2022-09-18T00:36:13.584Z,99.99
2022-09-18T00:37:13.581Z,99.99
2022-09-18T00:38:13.576Z,99.99
2022-09-18T00:39:13.572Z,99.99
2022-09-18T00:40:13.768Z,99.99
2022-09-18T00:41:13.565Z,99.99
2022-09-18T00:42:13.568Z,99.99
2022-09-18T00:43:13.569Z,99.99
2022-09-18T00:44:13.557Z,99.99
2022-09-18T00:45:13.570Z,99.99
2022-09-18T00:46:13.607Z,99.99
2022-09-18T00:47:13.548Z,99.99
2022-09-18T00:48:13.544Z,99.99
2022-09-18T00:49:13.544Z,99.99
2022-09-18T00:50:13.541Z,99.99
2022-09-18T00:51:13.541Z,99.99
2022-09-18T00:52:13.544Z,99.99
2022-09-18T00:53:13.526Z,99.99
2022-09-18T00:54:13.526Z,99.99
2022-09-18T00:55:13.538Z,99.99
2022-09-18T00:56:13.618Z,99.99
2022-09-18T00:57:13.522Z,99.99
2022-09-18T00:58:13.506Z,99.99
2022-09-18T00:59:13.507Z,99.99
2022-09-18T01:00:13.502Z,99.99
2022-09-18T01:01:13.563Z,99.99
2022-09-18T01:02:13.594Z,99.99
2022-09-18T01:03:13.514Z,99.99
2022-09-18T01:04:13.498Z,99.99
2022-09-18T01:05:13.490Z,99.99
2022-09-18T01:06:13.504Z,99.99
2022-09-18T01:07:13.486Z,99.99
2022-09-18T01:08:13.468Z,99.99
2022-09-18T01:09:25.204Z,99.99
2022-09-18T01:10:13.467Z,99.99
2022-09-18T01:11:13.547Z,99.99
2022-09-18T01:12:13.559Z,99.99
2022-09-18T01:13:13.471Z,99.99
2022-09-18T01:14:13.462Z,99.99
2022-09-18T01:15:13.465Z,99.99
2022-09-18T01:16:13.577Z,99.99
2022-09-18T01:17:13.440Z,99.99
2022-09-18T01:18:13.434Z,99.99
2022-09-18T01:19:13.437Z,99.99
2022-09-18T01:20:13.448Z,99.99
2022-09-18T01:21:13.432Z,99.99
2022-09-18T01:22:13.451Z,99.99
2022-09-18T01:23:13.423Z,99.99
2022-09-18T01:24:13.436Z,99.99
2022-09-18T01:25:13.429Z,99.99
2022-09-18T01:26:13.421Z,99.99
2022-09-18T01:27:13.510Z,99.99
2022-09-18T01:28:13.505Z,99.99
2022-09-18T01:29:13.401Z,99.99
2022-09-18T01:30:13.394Z,99.99
2022-09-18T01:31:13.460Z,99.99
2022-09-18T01:32:13.399Z,99.99
2022-09-18T01:33:13.402Z,99.99
2022-09-18T01:34:13.390Z,99.99
2022-09-18T01:35:36.774Z,99.99
2022-09-18T01:36:13.371Z,99.99
2022-09-18T01:37:13.371Z,99.99
2022-09-18T01:38:13.365Z,99.99
2022-09-18T01:39:13.376Z,99.99
2022-09-18T01:40:13.458Z,99.99
2022-09-18T01:41:13.371Z,99.99
2022-09-18T01:42:13.353Z,99.99
2022-09-18T01:43:13.349Z,99.99
2022-09-18T01:44:13.438Z,99.99
2022-09-18T01:45:13.337Z,99.99
2022-09-18T01:46:13.401Z,99.99
2022-09-18T01:47:13.333Z,99.99
2022-09-18T01:48:13.333Z,99.99
2022-09-18T01:49:13.318Z,99.99
2022-09-18T01:50:13.343Z,99.99
2022-09-18T01:51:13.320Z,99.99
2022-09-18T01:52:13.314Z,99.99
2022-09-18T01:53:13.304Z,99.99
2022-09-18T01:54:13.336Z,99.99
2022-09-18T01:55:13.301Z,99.99
2022-09-18T01:56:13.293Z,99.99
2022-09-18T01:57:13.297Z,99.99
2022-09-18T01:58:13.295Z,99.99
2022-09-18T01:59:13.326Z,99.99
2022-09-18T02:00:13.379Z,99.99
2022-09-18T02:01:13.437Z,99.99
2022-09-18T02:02:13.579Z,99.99
2022-09-18T02:03:13.274Z,99.99
2022-09-18T02:04:13.271Z,99.99
2022-09-18T02:05:13.268Z,99.99
2022-09-18T02:06:13.280Z,99.99
2022-09-18T02:07:13.258Z,99.99
2022-09-18T02:08:13.250Z,99.99
2022-09-18T02:09:13.257Z,99.99
2022-09-18T02:10:13.243Z,99.99
2022-09-18T02:11:13.246Z,99.99
2022-09-18T02:12:13.243Z,99.99
2022-09-18T02:13:13.237Z,99.99
2022-09-18T02:14:13.230Z,99.99
2022-09-18T02:15:13.227Z,99.99
2022-09-18T02:16:13.384Z,99.99
2022-09-18T02:17:13.220Z,99.99
2022-09-18T02:18:13.214Z,99.99
2022-09-18T02:19:13.216Z,99.99
2022-09-18T02:20:13.205Z,99.99
2022-09-18T02:21:13.205Z,99.99
2022-09-18T02:22:13.206Z,99.99
2022-09-18T02:23:13.199Z,99.99
2022-09-18T02:24:13.195Z,99.99
2022-09-18T02:25:13.193Z,99.99
2022-09-18T02:26:13.195Z,99.99
2022-09-18T02:27:13.183Z,99.99
2022-09-18T02:28:13.183Z,99.99
2022-09-18T02:29:13.186Z,99.99
2022-09-18T02:30:13.171Z,99.99
2022-09-18T02:31:13.261Z,99.99
2022-09-18T02:32:13.256Z,99.99
2022-09-18T02:33:13.162Z,99.99
2022-09-18T02:34:13.159Z,99.99
2022-09-18T02:35:13.148Z,99.99
2022-09-18T02:36:13.195Z,99.99
2022-09-18T02:37:13.139Z,99.99
2022-09-18T02:38:13.133Z,99.99
2022-09-18T02:39:13.128Z,99.99
2022-09-18T02:40:13.186Z,99.99
2022-09-18T02:41:13.127Z,99.99
2022-09-18T02:42:13.123Z,99.99
2022-09-18T02:43:13.120Z,99.99
2022-09-18T02:44:13.111Z,99.99
2022-09-18T02:45:13.105Z,99.99
2022-09-18T02:46:13.162Z,99.99
2022-09-18T02:47:13.106Z,99.99
2022-09-18T02:48:13.190Z,99.99
2022-09-18T02:49:13.092Z,99.99
2022-09-18T02:50:13.097Z,99.99
2022-09-18T02:51:13.080Z,99.99
2022-09-18T02:52:13.087Z,99.99
2022-09-18T02:53:13.085Z,99.99
2022-09-18T02:54:13.078Z,99.99
2022-09-18T02:55:13.083Z,99.99
2022-09-18T02:56:13.084Z,99.99
2022-09-18T02:57:13.062Z,99.99
2022-09-18T02:58:13.058Z,99.99
2022-09-18T02:59:13.051Z,99.99
2022-09-18T03:00:13.050Z,99.99
2022-09-18T03:01:13.098Z,99.99
2022-09-18T03:02:13.239Z,99.99
2022-09-18T03:03:13.045Z,99.99
2022-09-18T03:04:13.140Z,99.99
2022-09-18T03:05:13.069Z,99.99
2022-09-18T03:06:13.030Z,99.99
2022-09-18T03:07:13.026Z,99.99
2022-09-18T03:08:13.018Z,99.99
2022-09-18T03:09:13.018Z,99.99
2022-09-18T03:10:13.016Z,99.99
2022-09-18T03:11:13.013Z,99.99
2022-09-18T03:12:13.020Z,99.99
2022-09-18T03:13:12.999Z,99.99
2022-09-18T03:14:12.995Z,99.99
2022-09-18T03:15:12.998Z,99.99
2022-09-18T03:16:13.013Z,99.99
2022-09-18T03:17:12.982Z,99.99
2022-09-18T03:18:12.980Z,99.99
2022-09-18T03:19:12.974Z,99.99
2022-09-18T03:20:13.072Z,99.99
2022-09-18T03:21:12.966Z,99.99
2022-09-18T03:22:12.960Z,99.99
2022-09-18T03:23:12.988Z,99.99
2022-09-18T03:24:12.975Z,99.99
2022-09-18T03:25:12.955Z,99.99
2022-09-18T03:26:12.952Z,99.99
2022-09-18T03:27:12.944Z,99.99
2022-09-18T03:28:12.934Z,99.99
2022-09-18T03:29:12.937Z,99.99
2022-09-18T03:30:12.938Z,99.99
2022-09-18T03:31:12.948Z,99.99
2022-09-18T03:32:12.938Z,99.99
2022-09-18T03:33:12.935Z,99.99
2022-09-18T03:34:12.915Z,99.99
2022-09-18T03:35:12.916Z,99.99
2022-09-18T03:36:13.007Z,99.99
2022-09-18T03:37:12.899Z,99.99
2022-09-18T03:38:12.898Z,99.99
2022-09-18T03:39:13.745Z,99.99
2022-09-18T03:40:12.928Z,99.99
2022-09-18T03:41:12.889Z,99.99
2022-09-18T03:42:12.881Z,99.99
2022-09-18T03:43:13.002Z,99.99
2022-09-18T03:44:12.872Z,99.99
2022-09-18T03:45:12.875Z,99.99
2022-09-18T03:46:12.961Z,99.99
2022-09-18T03:47:12.858Z,99.99
2022-09-18T03:48:12.857Z,99.99
2022-09-18T03:49:12.859Z,99.99
2022-09-18T03:50:12.859Z,99.99
2022-09-18T03:51:12.852Z,99.99
2022-09-18T03:52:12.951Z,99.99
2022-09-18T03:53:12.848Z,99.99
2022-09-18T03:54:12.846Z,99.99
2022-09-18T03:55:12.830Z,99.99
2022-09-18T03:56:12.823Z,99.99
2022-09-18T03:57:12.829Z,99.99
2022-09-18T03:58:12.826Z,99.99
2022-09-18T03:59:12.830Z,99.99
2022-09-18T04:00:12.815Z,99.99
2022-09-18T04:01:12.815Z,99.99
2022-09-18T04:02:12.852Z,99.99
2022-09-18T04:03:12.901Z,99.99
2022-09-18T04:04:12.791Z,99.99
2022-09-18T04:05:12.788Z,99.99
2022-09-18T04:06:12.784Z,99.99
2022-09-18T04:07:12.781Z,99.99
2022-09-18T04:08:12.894Z,99.99
2022-09-18T04:09:12.781Z,99.99
2022-09-18T04:10:12.774Z,99.99
2022-09-18T04:11:12.771Z,99.99
2022-09-18T04:12:12.761Z,99.99
2022-09-18T04:13:12.802Z,99.99
2022-09-18T04:14:12.758Z,99.99
2022-09-18T04:15:12.747Z,99.99
2022-09-18T04:16:12.798Z,99.99
2022-09-18T04:17:12.741Z,99.99
2022-09-18T04:18:12.739Z,99.99
2022-09-18T04:19:12.733Z,99.99
2022-09-18T04:20:12.752Z,99.99
2022-09-18T04:21:12.727Z,99.99
2022-09-18T04:22:12.732Z,99.99
2022-09-18T04:23:12.715Z,99.99
2022-09-18T04:24:12.813Z,99.99
2022-09-18T04:25:12.713Z,99.99
2022-09-18T04:26:12.704Z,99.99
2022-09-18T04:27:12.715Z,99.99
2022-09-18T04:28:12.709Z,99.99
2022-09-18T04:29:12.698Z,99.99
2022-09-18T04:30:12.691Z,99.99
2022-09-18T04:31:12.730Z,99.99
2022-09-18T04:32:12.687Z,99.99
2022-09-18T04:33:12.679Z,99.99
2022-09-18T04:34:12.675Z,99.99
2022-09-18T04:35:12.676Z,99.99
2022-09-18T04:36:12.664Z,99.99
2022-09-18T04:37:12.670Z,99.99
2022-09-18T04:38:12.662Z,99.95
2022-09-18T04:39:12.657Z,99.51
2022-09-18T04:40:12.823Z,99.66
2022-09-18T04:41:12.659Z,99.13
2022-09-18T04:42:12.651Z,99.60
2022-09-18T04:43:12.653Z,99.51
2022-09-18T04:44:12.633Z,99.41
2022-09-18T04:45:12.643Z,99.41
2022-09-18T04:46:12.687Z,99.60
2022-09-18T04:47:12.621Z,99.60
2022-09-18T04:48:12.627Z,99.13
2022-09-18T04:49:12.615Z,99.70
2022-09-18T04:50:12.614Z,99.89
2022-09-18T04:51:12.621Z,99.60
2022-09-18T04:52:12.602Z,99.22
2022-09-18T04:53:12.601Z,98.94
2022-09-18T04:54:12.608Z,98.94
2022-09-18T04:55:12.591Z,99.22
2022-09-18T04:56:12.684Z,99.22
2022-09-18T04:57:12.604Z,99.22
2022-09-18T04:58:12.580Z,99.32
2022-09-18T04:59:12.588Z,99.32
2022-09-18T05:00:12.571Z,98.85
2022-09-18T05:01:12.676Z,98.18
2022-09-18T05:02:12.654Z,98.46
2022-09-18T05:03:12.575Z,98.08
2022-09-18T05:04:12.558Z,98.27
2022-09-18T05:05:12.556Z,98.08
2022-09-18T05:06:12.543Z,98.18
2022-09-18T05:07:12.541Z,97.80
2022-09-18T05:08:12.539Z,98.18
2022-09-18T05:09:12.553Z,98.85
2022-09-18T05:10:12.531Z,98.65
2022-09-18T05:11:12.524Z,98.46
2022-09-18T05:12:12.625Z,98.85
2022-09-18T05:13:12.518Z,98.18
2022-09-18T05:14:12.516Z,97.99
2022-09-18T05:15:12.510Z,97.80
2022-09-18T05:16:12.532Z,97.89
2022-09-18T05:17:12.506Z,97.51
2022-09-18T05:18:12.494Z,97.61
2022-09-18T05:19:12.492Z,97.32
2022-09-18T05:20:12.490Z,98.08
2022-09-18T05:21:12.492Z,97.99
2022-09-18T05:22:12.489Z,97.80
2022-09-18T05:23:12.482Z,97.99
2022-09-18T05:24:12.481Z,97.85
2022-09-18T05:25:12.470Z,97.75
2022-09-18T05:26:12.470Z,96.84
2022-09-18T05:27:12.464Z,96.94
2022-09-18T05:28:12.556Z,97.32
2022-09-18T05:29:12.452Z,97.22
2022-09-18T05:30:12.461Z,97.13
2022-09-18T05:31:12.520Z,97.32
2022-09-18T05:32:12.443Z,96.94
2022-09-18T05:33:12.439Z,97.08
2022-09-18T05:34:12.434Z,97.03
2022-09-18T05:35:12.430Z,97.32
2022-09-18T05:36:12.430Z,97.03
2022-09-18T05:37:12.435Z,96.27
2022-09-18T05:38:12.415Z,96.32
2022-09-18T05:39:16.862Z,96.41
2022-09-18T05:40:12.475Z,96.27
2022-09-18T05:41:12.408Z,96.13
2022-09-18T05:42:12.406Z,95.98
2022-09-18T05:43:12.399Z,95.61
2022-09-18T05:44:12.488Z,95.32
2022-09-18T05:45:12.387Z,95.22
2022-09-18T05:46:12.433Z,95.12
2022-09-18T05:47:12.384Z,95.41
2022-09-18T05:48:12.388Z,95.22
2022-09-18T05:49:12.390Z,95.22
2022-09-18T05:50:12.432Z,95.22
2022-09-18T05:51:12.371Z,95.22
2022-09-18T05:52:12.398Z,95.51
2022-09-18T05:53:12.369Z,95.41
2022-09-18T05:54:12.398Z,94.65
2022-09-18T05:55:19.553Z,95.32
2022-09-18T05:57:16.360Z,94.84
2022-09-18T05:58:16.335Z,94.74
2022-09-18T06:00:20.459Z,94.93
2022-09-18T06:01:20.322Z,94.46
2022-09-18T06:03:24.360Z,94.17
2022-09-18T06:04:24.285Z,94.03
2022-09-18T06:06:17.232Z,92.93
2022-09-18T06:07:17.229Z,93.22
2022-09-18T06:09:21.233Z,93.22
2022-09-18T06:10:21.207Z,92.93
2022-09-18T06:12:25.181Z,92.65
2022-09-18T06:13:25.179Z,92.74
2022-09-18T06:15:29.376Z,92.98
2022-09-18T06:16:29.218Z,92.98
2022-09-18T06:18:33.172Z,92.60
2022-09-18T06:19:33.126Z,92.88
2022-09-18T06:21:37.157Z,92.93
2022-09-18T06:22:37.114Z,93.12
2022-09-18T06:24:41.111Z,92.36
2022-09-18T06:25:41.128Z,92.41
2022-09-18T06:27:45.127Z,92.65
2022-09-18T06:28:45.084Z,92.08
2022-09-18T06:30:49.167Z,92.74
2022-09-18T06:31:49.080Z,92.65
2022-09-18T06:33:53.063Z,92.46
2022-09-18T06:34:53.040Z,92.60
2022-09-18T06:36:45.969Z,92.50
2022-09-18T06:37:45.946Z,92.22
2022-09-18T06:39:49.998Z,92.32
2022-09-18T06:40:49.985Z,92.32
2022-09-18T06:41:49.983Z,92.50
2022-09-18T06:42:50.000Z,91.83
2022-09-18T06:43:49.986Z,91.17
2022-09-18T06:44:49.974Z,91.17
2022-09-18T06:45:50.003Z,91.36
2022-09-18T06:46:50.147Z,91.07
2022-09-18T06:47:49.966Z,90.98
2022-09-18T06:48:49.965Z,91.27
2022-09-18T06:49:49.960Z,91.17
2022-09-18T06:50:49.956Z,90.98
2022-09-18T06:51:49.957Z,91.46
2022-09-18T06:52:49.949Z,91.46
2022-09-18T06:53:49.970Z,90.50
2022-09-18T06:54:49.950Z,89.74
2022-09-18T06:55:49.942Z,89.45
2022-09-18T06:56:49.943Z,89.93
2022-09-18T06:57:49.936Z,89.74
2022-09-18T06:58:49.932Z,89.93
2022-09-18T06:59:49.931Z,90.50
2022-09-18T07:00:49.976Z,89.93
2022-09-18T07:01:49.949Z,89.54
2022-09-18T07:02:50.032Z,89.54
2022-09-18T07:03:49.920Z,89.45
2022-09-18T07:04:49.926Z,89.83
2022-09-18T07:05:49.915Z,89.83
2022-09-18T07:06:49.911Z,89.07
2022-09-18T07:07:49.908Z,89.26
2022-09-18T07:08:49.903Z,89.17
2022-09-18T07:09:49.924Z,89.26
2022-09-18T07:10:49.900Z,89.26
2022-09-18T07:11:49.906Z,89.17
2022-09-18T07:12:49.895Z,89.07
2022-09-18T07:13:49.898Z,89.07
2022-09-18T07:14:49.887Z,88.59
2022-09-18T07:15:49.934Z,88.35
2022-09-18T07:16:49.881Z,87.68
2022-09-18T07:17:49.889Z,88.07
2022-09-18T07:18:49.999Z,87.87
2022-09-18T07:19:49.891Z,88.07
2022-09-18T07:20:49.872Z,87.30
2022-09-18T07:21:49.877Z,87.21
2022-09-18T07:22:49.867Z,86.16
2022-09-18T07:23:49.878Z,85.97
2022-09-18T07:24:49.870Z,85.58
2022-09-18T07:25:49.863Z,85.11
2022-09-18T07:26:49.871Z,85.05
2022-09-18T07:27:49.874Z,85.63
2022-09-18T07:28:49.874Z,85.82
2022-09-18T07:29:49.882Z,84.81
2022-09-18T07:30:49.855Z,84.33
2022-09-18T07:31:49.904Z,83.99
2022-09-18T07:32:49.855Z,82.56
2022-09-18T07:33:49.860Z,81.84
2022-09-18T07:34:49.981Z,79.93
2022-09-18T07:35:49.860Z,78.43
2022-09-18T07:36:49.866Z,77.57
2022-09-18T07:37:49.859Z,76.33
2022-09-18T07:38:49.859Z,76.08
2022-09-18T07:39:49.863Z,74.45
2022-09-18T07:40:49.871Z,73.97
2022-09-18T07:41:49.875Z,74.45
2022-09-18T07:42:49.869Z,74.58
2022-09-18T07:43:49.891Z,74.20
2022-09-18T07:44:49.904Z,72.77
2022-09-18T07:45:49.904Z,71.23
2022-09-18T07:46:49.944Z,71.04
2022-09-18T07:47:49.902Z,71.52
2022-09-18T07:48:50.016Z,72.25
2022-09-18T07:49:49.939Z,72.63
2022-09-18T07:50:50.030Z,72.06
2022-09-18T07:51:49.955Z,72.44
2022-09-18T07:52:49.925Z,72.54
2022-09-18T07:53:49.948Z,73.79
2022-09-18T07:54:49.980Z,71.97
2022-09-18T07:55:49.952Z,71.97
2022-09-18T07:56:49.957Z,71.77
2022-09-18T07:57:49.978Z,72.77
2022-09-18T07:58:49.965Z,72.48
2022-09-18T07:59:49.972Z,72.96
2022-09-18T08:00:49.978Z,72.61
2022-09-18T08:01:50.077Z,71.75
2022-09-18T08:02:50.084Z,69.74
2022-09-18T08:03:50.022Z,68.30
2022-09-18T08:04:50.023Z,68.87
2022-09-18T08:05:50.030Z,68.97
2022-09-18T08:06:50.114Z,68.40
2022-09-18T08:07:50.034Z,68.36
2022-09-18T08:08:54.796Z,68.94
2022-09-18T08:09:50.046Z,69.51
2022-09-18T08:10:50.060Z,69.80
2022-09-18T08:11:50.053Z,69.67
2022-09-18T08:12:50.064Z,69.76
2022-09-18T08:13:50.092Z,70.62
2022-09-18T08:14:50.080Z,71.20
2022-09-18T08:15:50.152Z,71.55
2022-09-18T08:16:50.106Z,71.26
2022-09-18T08:17:50.116Z,72.50
2022-09-18T08:18:50.149Z,73.08
2022-09-18T08:19:50.098Z,73.75
2022-09-18T08:20:50.113Z,72.69
2022-09-18T08:21:50.144Z,73.17
2022-09-18T08:22:50.212Z,73.46
2022-09-18T08:23:50.112Z,73.55
2022-09-18T08:24:50.113Z,74.22
2022-09-18T08:25:50.117Z,73.84
2022-09-18T08:26:50.135Z,73.99
2022-09-18T08:27:50.127Z,74.09
2022-09-18T08:28:50.124Z,75.05
2022-09-18T08:29:50.129Z,74.13
2022-09-18T08:30:50.144Z,74.04
2022-09-18T08:31:50.219Z,74.22
2022-09-18T08:32:50.131Z,74.13
2022-09-18T08:33:50.132Z,74.65
2022-09-18T08:34:50.160Z,74.16
2022-09-18T08:35:50.153Z,73.02
2022-09-18T08:36:50.151Z,72.73
2022-09-18T08:37:50.149Z,70.85
2022-09-18T08:38:50.241Z,71.62
2022-09-18T08:39:50.149Z,71.33
2022-09-18T08:40:50.150Z,70.47
2022-09-18T08:41:50.182Z,71.14
2022-09-18T08:42:50.158Z,71.33
2022-09-18T08:43:50.172Z,72.29
2022-09-18T08:44:50.156Z,72.38
2022-09-18T08:45:50.164Z,71.62
2022-09-18T08:46:50.196Z,70.24
2022-09-18T08:47:50.161Z,70.72
2022-09-18T08:48:50.190Z,70.91
2022-09-18T08:49:50.170Z,71.77
2022-09-18T08:50:50.156Z,73.02
2022-09-18T08:51:50.167Z,74.26
2022-09-18T08:52:50.198Z,72.34
2022-09-18T08:53:50.166Z,71.39
2022-09-18T08:54:50.255Z,71.77
2022-09-18T08:55:50.186Z,72.06
2022-09-18T08:56:50.185Z,72.25
2022-09-18T08:57:50.167Z,72.77
2022-09-18T08:58:50.173Z,72.67
2022-09-18T08:59:50.175Z,72.00
2022-09-18T09:00:50.192Z,71.14
2022-09-18T09:01:50.199Z,70.37
2022-09-18T09:02:50.167Z,70.18
2022-09-18T09:03:50.175Z,70.28
2022-09-18T09:04:50.187Z,71.23
2022-09-18T09:05:50.197Z,70.28
2022-09-18T09:06:50.174Z,69.80
2022-09-18T09:07:50.194Z,68.90
2022-09-18T09:08:50.197Z,69.38
2022-09-18T09:09:50.176Z,70.62
2022-09-18T09:10:50.273Z,70.72
2022-09-18T09:11:50.163Z,70.62
2022-09-18T09:12:50.192Z,71.01
2022-09-18T09:13:50.169Z,71.39
2022-09-18T09:14:58.075Z,71.58
2022-09-18T09:15:50.227Z,71.77
2022-09-18T09:16:50.188Z,70.81
2022-09-18T09:17:50.160Z,71.16
2022-09-18T09:18:50.170Z,70.30
2022-09-18T09:19:50.173Z,70.59
2022-09-18T09:20:50.164Z,70.97
2022-09-18T09:21:50.171Z,70.30
2022-09-18T09:22:50.205Z,70.68
2022-09-18T09:23:50.179Z,70.40
2022-09-18T09:24:50.167Z,71.45
2022-09-18T09:25:50.167Z,70.50
2022-09-18T09:26:50.261Z,70.78
2022-09-18T09:27:50.164Z,71.45
2022-09-18T09:28:50.171Z,72.02
2022-09-18T09:29:50.158Z,71.73
2022-09-18T09:30:50.156Z,72.31
2022-09-18T09:31:50.234Z,72.41
2022-09-18T09:32:50.188Z,72.41
2022-09-18T09:33:50.263Z,72.79
2022-09-18T09:34:50.149Z,72.88
2022-09-18T09:35:50.156Z,72.88
2022-09-18T09:36:50.160Z,71.16
2022-09-18T09:37:50.145Z,70.50
2022-09-18T09:38:50.152Z,69.54
2022-09-18T09:39:50.153Z,70.01
2022-09-18T09:40:50.146Z,70.40
2022-09-18T09:41:50.149Z,70.11
2022-09-18T09:42:50.142Z,70.30
2022-09-18T09:43:50.154Z,71.07
2022-09-18T09:44:50.151Z,71.83
2022-09-18T09:45:50.141Z,72.50
2022-09-18T09:46:50.219Z,72.12
2022-09-18T09:47:50.138Z,72.41
2022-09-18T09:48:50.143Z,71.64
2022-09-18T09:49:50.137Z,71.07
2022-09-18T09:50:50.145Z,70.40
2022-09-18T09:51:50.149Z,70.78
2022-09-18T09:52:50.154Z,70.30
2022-09-18T09:53:50.156Z,70.87
2022-09-18T09:54:50.132Z,71.16
2022-09-18T09:55:50.127Z,71.22
2022-09-18T09:56:50.132Z,71.36
2022-09-18T09:57:50.133Z,71.99
2022-09-18T09:58:50.228Z,71.64
2022-09-18T09:59:50.143Z,71.42
2022-09-18T10:00:50.206Z,71.61
2022-09-18T10:01:50.161Z,71.80
2022-09-18T10:02:50.133Z,72.66
2022-09-18T10:03:50.130Z,72.37
2022-09-18T10:04:50.137Z,72.85
2022-09-18T10:05:53.651Z,72.75
2022-09-18T10:06:50.122Z,72.56
2022-09-18T10:07:50.147Z,73.23
2022-09-18T10:08:50.117Z,73.23
2022-09-18T10:09:50.109Z,73.52
2022-09-18T10:10:50.115Z,74.19
2022-09-18T10:11:52.131Z,72.85
2022-09-18T10:12:50.106Z,72.37
2022-09-18T10:13:50.116Z,72.66
2022-09-18T10:14:50.214Z,72.66
2022-09-18T10:15:50.147Z,72.66
2022-09-18T10:16:50.105Z,72.75
2022-09-18T10:17:50.114Z,73.14
2022-09-18T10:18:50.125Z,73.71
2022-09-18T10:19:50.103Z,73.33
2022-09-18T10:20:50.100Z,73.33
2022-09-18T10:21:50.118Z,73.14
2022-09-18T10:22:50.115Z,72.66
2022-09-18T10:23:50.096Z,72.66
2022-09-18T10:24:50.084Z,72.18
2022-09-18T10:25:50.102Z,71.99
2022-09-18T10:26:50.087Z,72.41
2022-09-18T10:27:50.088Z,72.56
2022-09-18T10:28:50.112Z,72.85
2022-09-18T10:29:50.102Z,72.98
2022-09-18T10:30:50.179Z,72.69
2022-09-18T10:31:50.147Z,72.60
2022-09-18T10:32:50.081Z,72.31
2022-09-18T10:33:50.183Z,71.93
2022-09-18T10:34:50.083Z,72.22
2022-09-18T10:35:50.074Z,72.31
2022-09-18T10:36:50.082Z,71.73
2022-09-18T10:37:50.104Z,71.55
2022-09-18T10:38:50.074Z,71.36
2022-09-18T10:39:50.098Z,71.45
2022-09-18T10:40:50.083Z,71.70
2022-09-18T10:41:50.072Z,71.70
2022-09-18T10:42:50.064Z,70.17
2022-09-18T10:43:50.063Z,70.46
2022-09-18T10:44:50.065Z,70.46
2022-09-18T10:45:50.074Z,69.70
2022-09-18T10:46:50.256Z,70.17
2022-09-18T10:47:50.061Z,70.36
2022-09-18T10:48:50.169Z,70.46
2022-09-18T10:49:50.054Z,69.79
2022-09-18T10:50:50.050Z,70.07
2022-09-18T10:51:50.059Z,69.41
2022-09-18T10:52:50.072Z,68.64
2022-09-18T10:53:50.054Z,68.07
2022-09-18T10:54:50.042Z,67.97
2022-09-18T10:55:53.911Z,68.07
2022-09-18T10:56:50.047Z,68.35
2022-09-18T10:57:50.055Z,68.84
2022-09-18T10:58:50.063Z,69.12
2022-09-18T10:59:50.057Z,68.93
2022-09-18T11:00:50.156Z,70.36
2022-09-18T11:01:50.121Z,71.32
2022-09-18T11:02:50.138Z,71.70
2022-09-18T11:03:50.044Z,72.94
2022-09-18T11:04:50.039Z,72.85
2022-09-18T11:05:50.035Z,73.61
2022-09-18T11:06:50.024Z,73.33
2022-09-18T11:07:50.051Z,73.99
2022-09-18T11:08:50.028Z,73.99
2022-09-18T11:09:50.028Z,74.57
2022-09-18T11:10:50.022Z,74.09
2022-09-18T11:11:50.016Z,73.52
2022-09-18T11:12:53.572Z,73.14
2022-09-18T11:13:50.018Z,72.94
2022-09-18T11:14:50.014Z,72.94
2022-09-18T11:15:50.084Z,72.75
2022-09-18T11:16:50.044Z,72.56
2022-09-18T11:17:50.016Z,72.75
2022-09-18T11:18:50.122Z,72.94
2022-09-18T11:19:50.031Z,71.80
2022-09-18T11:20:50.018Z,70.84
2022-09-18T11:21:50.027Z,70.94
2022-09-18T11:22:50.018Z,70.36
2022-09-18T11:23:50.010Z,71.61
2022-09-18T11:24:50.004Z,73.00
2022-09-18T11:25:49.998Z,74.73
2022-09-18T11:26:50.003Z,76.25
2022-09-18T11:27:49.988Z,77.59
2022-09-18T11:28:49.991Z,78.07
2022-09-18T11:29:49.989Z,78.03
2022-09-18T11:30:49.995Z,78.13
2022-09-18T11:31:50.061Z,78.89
2022-09-18T11:32:49.987Z,79.17
2022-09-18T11:33:49.995Z,79.94
2022-09-18T11:34:50.078Z,80.41
2022-09-18T11:35:49.992Z,80.61
2022-09-18T11:36:49.980Z,81.09
2022-09-18T11:37:49.982Z,81.85
2022-09-18T11:38:49.965Z,82.81
2022-09-18T11:39:49.985Z,82.52
2022-09-18T11:40:49.977Z,82.52
2022-09-18T11:41:49.963Z,83.47
2022-09-18T11:42:49.961Z,83.86
2022-09-18T11:43:49.956Z,84.05
2022-09-18T11:44:49.951Z,84.72
2022-09-18T11:45:50.048Z,84.05
2022-09-18T11:46:50.223Z,83.95
2022-09-18T11:47:49.973Z,84.23
2022-09-18T11:48:49.993Z,84.23
2022-09-18T11:49:49.946Z,84.43
2022-09-18T11:50:50.048Z,84.72
2022-09-18T11:51:49.939Z,85.29
2022-09-18T11:52:49.937Z,85.96
2022-09-18T11:53:49.936Z,85.86
2022-09-18T11:54:49.931Z,86.24
2022-09-18T11:55:49.928Z,86.10
2022-09-18T11:56:49.937Z,86.38
2022-09-18T11:57:49.933Z,86.57
2022-09-18T11:58:49.929Z,86.47
2022-09-18T11:59:49.919Z,86.19
2022-09-18T12:00:49.923Z,86.10
2022-09-18T12:01:49.972Z,86.29
2022-09-18T12:02:49.998Z,86.00
2022-09-18T12:03:49.923Z,85.90
2022-09-18T12:04:49.954Z,86.29
2022-09-18T12:05:49.916Z,85.14
2022-09-18T12:06:50.029Z,85.05
2022-09-18T12:07:48.555Z,84.56
2022-09-18T12:08:48.553Z,84.47
2022-09-18T12:09:48.567Z,84.47
2022-09-18T12:10:48.552Z,84.28
2022-09-18T12:11:48.536Z,83.99
2022-09-18T12:12:48.533Z,83.04
2022-09-18T12:13:48.526Z,83.13
2022-09-18T12:14:48.525Z,83.42
2022-09-18T12:15:48.531Z,82.56
2022-09-18T12:16:48.517Z,81.51
2022-09-18T12:17:48.529Z,80.36
2022-09-18T12:18:48.520Z,77.78
2022-09-18T12:19:48.540Z,74.82
2022-09-18T12:20:48.513Z,74.34
2022-09-18T12:21:48.530Z,74.24
2022-09-18T12:22:48.600Z,74.02
2022-09-18T12:23:48.499Z,74.11
2022-09-18T12:24:48.500Z,74.02
2022-09-18T12:25:48.501Z,74.21
2022-09-18T12:26:48.500Z,74.21
2022-09-18T12:27:48.495Z,75.35
2022-09-18T12:28:48.492Z,76.88
2022-09-18T12:29:48.487Z,77.45
2022-09-18T12:30:48.485Z,78.51
2022-09-18T12:31:48.495Z,79.33
2022-09-18T12:32:48.470Z,79.46
2022-09-18T12:33:48.468Z,80.22
2022-09-18T12:34:48.469Z,80.41
2022-09-18T12:35:48.459Z,81.37
2022-09-18T12:36:48.458Z,81.37
2022-09-18T12:37:48.460Z,82.14
2022-09-18T12:38:49.225Z,82.52
2022-09-18T12:39:49.127Z,82.14
2022-09-18T12:40:49.120Z,82.23
2022-09-18T12:41:49.113Z,82.42
2022-09-18T12:42:49.125Z,81.95
2022-09-18T12:43:49.107Z,81.47
2022-09-18T12:44:49.121Z,81.37
2022-09-18T12:45:49.152Z,81.47
2022-09-18T12:46:49.098Z,81.32
2022-09-18T12:47:49.101Z,81.32
2022-09-18T12:48:49.091Z,82.18
2022-09-18T12:49:49.093Z,82.37
2022-09-18T12:50:49.086Z,82.18
2022-09-18T12:51:49.088Z,82.08
2022-09-18T12:53:08.189Z,82.37
2022-09-18T12:53:49.075Z,82.18
2022-09-18T12:54:49.174Z,81.22
2022-09-18T12:55:49.074Z,80.65
2022-09-18T12:56:49.100Z,80.17
2022-09-18T12:57:49.069Z,79.50
2022-09-18T12:58:49.057Z,79.98
2022-09-18T12:59:49.063Z,79.69
2022-09-18T13:00:49.101Z,79.41
2022-09-18T13:01:49.057Z,80.07
2022-09-18T13:02:51.360Z,79.69
2022-09-18T13:03:49.095Z,79.79
2022-09-18T13:04:49.039Z,79.41
2022-09-18T13:05:49.051Z,78.36
2022-09-18T13:06:49.046Z,78.07
2022-09-18T13:07:49.052Z,78.93
2022-09-18T13:08:49.029Z,79.22
2022-09-18T13:09:49.026Z,78.64
2022-09-18T13:10:49.134Z,77.40
2022-09-18T13:11:49.022Z,77.78
2022-09-18T13:12:49.022Z,77.59
2022-09-18T13:13:49.095Z,77.11